Time;durP1;ratioP1;P1;durP2;ratioP2;P2;SDS_P1;SDS_P2;PMS_P1;PMS_P2;Temp;Humidity;BMP_temperature;BMP_pressure;BME280_temperature;BME280_humidity;BME280_pressure;Samples;Min_cycle;Max_cycle;Signal;HPM_P1;HPM_P2
2024/02/13 00:01:14;;;;;;;2.83;2.40;;;16.40;1.00;;;;;;2611049;54;20396;-67
2024/02/13 00:03:40;;;;;;;4.23;2.93;;;16.40;1.00;;;;;;2612510;54;20446;-66
2024/02/13 00:06:06;;;;;;;2.73;2.53;;;16.40;1.00;;;;;;2611292;54;20503;-67
2024/02/13 00:08:31;;;;;;;2.83;2.63;;;16.40;1.00;;;;;;2612887;54;20172;-67
2024/02/13 00:10:57;;;;;;;3.67;2.63;;;16.40;1.00;;;;;;2612172;54;20164;-67
2024/02/13 00:13:23;;;;;;;3.23;2.93;;;16.40;1.00;;;;;;2612881;54;20163;-67
2024/02/13 00:15:49;;;;;;;2.53;2.33;;;16.40;1.00;;;;;;2612924;54;20158;-68
2024/02/13 00:18:15;;;;;;;2.50;2.30;;;16.40;1.00;;;;;;2612260;54;20400;-68
2024/02/13 00:20:42;;;;;;;2.80;2.50;;;16.40;1.00;;;;;;2612541;54;20450;-67
2024/02/13 00:23:07;;;;;;;3.37;3.07;;;16.40;1.00;;;;;;2612649;54;20151;-59
2024/02/13 00:25:33;;;;;;;2.93;2.70;;;16.40;1.00;;;;;;2612141;54;20585;-59
2024/02/13 00:27:58;;;;;;;2.70;2.50;;;16.40;1.00;;;;;;2612397;54;20189;-59
2024/02/13 00:30:24;;;;;;;2.77;2.53;;;16.40;1.00;;;;;;2612453;54;20147;-59
2024/02/13 00:32:50;;;;;;;2.50;2.30;;;16.40;1.00;;;;;;2613552;54;20147;-58
2024/02/13 00:35:16;;;;;;;3.77;2.50;;;16.40;1.00;;;;;;2612567;47;20174;-59
2024/02/13 00:37:41;;;;;;;3.00;2.70;;;16.40;1.00;;;;;;2613680;54;20164;-60
2024/02/13 00:40:09;;;;;;;2.80;2.60;;;16.40;1.00;;;;;;2613184;54;20171;-58
2024/02/13 00:42:38;;;;;;;2.57;2.37;;;16.40;1.00;;;;;;2612538;47;20167;-58
2024/02/13 00:45:07;;;;;;;2.80;2.60;;;16.40;1.00;;;;;;2612896;54;20426;-59
2024/02/13 00:47:36;;;;;;;3.53;3.23;;;16.40;1.00;;;;;;2613120;54;20448;-59
2024/02/13 00:50:02;;;;;;;2.80;2.60;;;16.40;1.00;;;;;;2612950;54;20407;-59
2024/02/13 00:52:28;;;;;;;2.90;2.70;;;16.40;1.00;;;;;;2613352;39;20824;-59
2024/02/13 00:54:58;;;;;;;3.10;2.90;;;16.40;1.00;;;;;;2612192;54;20404;-59
2024/02/13 00:57:24;;;;;;;3.23;2.93;;;16.40;1.00;;;;;;2612636;54;20523;-59
2024/02/13 00:59:50;;;;;;;3.07;2.77;;;16.30;1.00;;;;;;2613471;39;21214;-59
2024/02/13 01:02:19;;;;;;;2.70;2.50;;;16.30;1.00;;;;;;2613097;54;20391;-59
2024/02/13 01:04:46;;;;;;;4.33;2.90;;;16.40;1.00;;;;;;2613598;54;20465;-62
2024/02/13 01:07:11;;;;;;;3.43;2.67;;;16.30;1.00;;;;;;2612504;47;20423;-61
2024/02/13 01:09:37;;;;;;;3.70;3.30;;;16.30;1.00;;;;;;2612404;54;20932;-62
2024/02/13 01:12:03;;;;;;;2.93;2.73;;;16.30;1.00;;;;;;2613324;54;20151;-61
2024/02/13 01:14:30;;;;;;;2.90;2.70;;;16.40;1.00;;;;;;2613975;54;20170;-61
2024/02/13 01:16:56;;;;;;;2.70;2.43;;;16.40;1.00;;;;;;2613197;54;20424;-62
2024/02/13 01:19:22;;;;;;;2.97;2.60;;;16.40;1.00;;;;;;2612618;46;20972;-61
2024/02/13 01:21:48;;;;;;;5.80;2.67;;;16.30;1.00;;;;;;2613383;54;20141;-61
2024/02/13 01:24:14;;;;;;;2.70;2.50;;;16.40;1.00;;;;;;2612709;39;20777;-65
2024/02/13 01:26:42;;;;;;;2.60;2.40;;;16.40;1.00;;;;;;2613699;54;20410;-65
2024/02/13 01:29:08;;;;;;;3.40;3.10;;;16.30;1.00;;;;;;2611829;54;20404;-65
2024/02/13 01:31:34;;;;;;;3.00;2.80;;;16.30;1.00;;;;;;2612751;54;20450;-66
2024/02/13 01:34:00;;;;;;;4.17;3.07;;;16.30;1.00;;;;;;2613298;54;20399;-61
2024/02/13 01:36:26;;;;;;;2.83;2.40;;;16.30;1.00;;;;;;2612798;47;20200;-62
2024/02/13 01:38:52;;;;;;;2.93;2.67;;;16.30;1.00;;;;;;2613346;54;20445;-61
2024/02/13 01:41:18;;;;;;;2.73;2.53;;;16.30;1.00;;;;;;2613490;54;20167;-62
2024/02/13 01:43:45;;;;;;;4.87;2.87;;;16.30;1.00;;;;;;2612848;54;20955;-62
2024/02/13 01:46:12;;;;;;;3.43;3.10;;;16.30;1.00;;;;;;2613318;54;20410;-61
2024/02/13 01:48:38;;;;;;;3.07;2.77;;;16.30;1.00;;;;;;2612114;54;20921;-62
2024/02/13 01:51:07;;;;;;;3.03;2.67;;;16.30;1.00;;;;;;2613256;53;20415;-62
2024/02/13 01:53:35;;;;;;;3.00;2.80;;;16.30;1.00;;;;;;2613056;54;20551;-62
2024/02/13 01:56:02;;;;;;;3.30;3.00;;;16.30;1.00;;;;;;2613184;54;20396;-62
2024/02/13 01:58:30;;;;;;;3.33;2.80;;;16.30;1.00;;;;;;2613675;39;20800;-61
2024/02/13 02:01:00;;;;;;;3.60;3.03;;;16.30;1.00;;;;;;2612044;54;20988;-62
2024/02/13 02:03:32;;;;;;;3.20;2.90;;;16.30;1.00;;;;;;2612209;46;20420;-62
2024/02/13 02:06:03;;;;;;;3.83;3.53;;;16.30;1.00;;;;;;2613155;46;20519;-62
2024/02/13 02:08:28;;;;;;;3.37;3.10;;;16.30;1.00;;;;;;2612519;54;20397;-62
2024/02/13 02:10:58;;;;;;;2.73;2.53;;;16.30;1.00;;;;;;2613646;39;20758;-62
2024/02/13 02:13:28;;;;;;;3.17;2.60;;;16.30;1.00;;;;;;2612352;54;20166;-60
2024/02/13 02:15:54;;;;;;;3.27;2.97;;;16.30;1.00;;;;;;2613096;54;20405;-59
2024/02/13 02:18:20;;;;;;;3.10;2.80;;;16.30;1.00;;;;;;2613087;47;20403;-59
2024/02/13 02:20:47;;;;;;;2.40;2.20;;;16.30;1.00;;;;;;2613569;39;20719;-61
2024/02/13 02:23:13;;;;;;;2.80;2.50;;;16.30;1.00;;;;;;2612915;54;20403;-60
2024/02/13 02:25:39;;;;;;;3.10;2.90;;;16.30;1.00;;;;;;2613096;54;21028;-60
2024/02/13 02:28:05;;;;;;;3.83;3.33;;;16.30;1.00;;;;;;2612415;54;20858;-61
2024/02/13 02:30:31;;;;;;;2.70;2.50;;;16.30;1.00;;;;;;2612720;47;20506;-60
2024/02/13 02:32:56;;;;;;;2.73;2.53;;;16.30;1.00;;;;;;2613636;54;20189;-66
2024/02/13 02:35:22;;;;;;;3.50;3.03;;;16.30;1.00;;;;;;2613081;54;20148;-67
2024/02/13 02:37:50;;;;;;;4.17;3.00;;;16.30;1.00;;;;;;2612402;47;20738;-66
2024/02/13 02:40:19;;;;;;;3.17;2.60;;;16.30;1.00;;;;;;2613220;54;20178;-67
2024/02/13 02:42:47;;;;;;;4.33;3.13;;;16.30;1.00;;;;;;2613658;54;21307;-59
2024/02/13 02:45:14;;;;;;;3.83;3.47;;;16.30;1.00;;;;;;2613065;54;20402;-59
2024/02/13 02:47:40;;;;;;;3.20;2.80;;;16.30;1.00;;;;;;2612852;54;21023;-60
2024/02/13 02:50:06;;;;;;;3.33;3.03;;;16.30;1.00;;;;;;2611320;54;20415;-58
2024/02/13 02:52:31;;;;;;;3.20;2.90;;;16.30;1.00;;;;;;2612104;54;20160;-59
2024/02/13 02:54:57;;;;;;;4.37;2.70;;;16.30;1.00;;;;;;2613016;54;20238;-59
2024/02/13 02:57:23;;;;;;;3.33;3.03;;;16.30;1.00;;;;;;2613072;54;20182;-60
2024/02/13 02:59:49;;;;;;;2.90;2.60;;;16.30;1.00;;;;;;2612347;54;20155;-59
2024/02/13 03:02:14;;;;;;;2.60;2.40;;;16.30;1.00;;;;;;2612726;47;20211;-59
2024/02/13 03:04:40;;;;;;;2.83;2.63;;;16.20;1.00;;;;;;2612552;47;21326;-58
2024/02/13 03:07:08;;;;;;;3.00;2.70;;;16.30;1.00;;;;;;2613382;47;20171;-59
2024/02/13 03:09:33;;;;;;;3.07;2.77;;;16.30;1.00;;;;;;2612705;54;20418;-59
2024/02/13 03:12:00;;;;;;;2.70;2.50;;;16.30;1.00;;;;;;2613240;54;20424;-60
2024/02/13 03:14:26;;;;;;;3.03;2.80;;;16.30;1.00;;;;;;2612887;39;20600;-59
2024/02/13 03:16:51;;;;;;;3.37;3.07;;;16.30;1.00;;;;;;2611802;47;20413;-59
2024/02/13 03:19:17;;;;;;;3.13;2.93;;;16.30;1.00;;;;;;2612629;54;20167;-59
2024/02/13 03:21:43;;;;;;;3.07;2.87;;;16.30;1.00;;;;;;2613052;47;20174;-59
2024/02/13 03:24:08;;;;;;;3.20;2.80;;;16.20;1.00;;;;;;2613168;54;20158;-60
2024/02/13 03:26:34;;;;;;;2.97;2.67;;;16.30;1.00;;;;;;2612477;39;20371;-58
2024/02/13 03:29:02;;;;;;;3.13;2.83;;;16.30;1.00;;;;;;2612581;54;20751;-59
2024/02/13 03:31:27;;;;;;;2.70;2.50;;;16.30;1.00;;;;;;2612804;54;20404;-59
2024/02/13 03:33:53;;;;;;;3.50;2.47;;;16.30;1.00;;;;;;2613779;31;21071;-59
2024/02/13 03:36:19;;;;;;;2.90;2.67;;;16.30;1.00;;;;;;2612280;51;20403;-59
2024/02/13 03:38:48;;;;;;;3.00;2.57;;;16.20;1.00;;;;;;2612921;39;20565;-59
2024/02/13 03:41:14;;;;;;;3.47;3.17;;;16.30;1.00;;;;;;2612863;54;20390;-60
2024/02/13 03:43:43;;;;;;;2.50;2.30;;;16.20;1.00;;;;;;2613143;31;20861;-64
2024/02/13 03:46:09;;;;;;;2.93;2.67;;;16.30;1.00;;;;;;2612857;54;20169;-64
2024/02/13 03:48:35;;;;;;;7.03;3.60;;;16.30;1.00;;;;;;2612783;54;20445;-64
2024/02/13 03:51:01;;;;;;;3.50;2.53;;;16.20;1.00;;;;;;2612621;39;20783;-64
2024/02/13 03:53:27;;;;;;;3.33;2.80;;;16.30;1.00;;;;;;2611780;54;20423;-62
2024/02/13 03:55:52;;;;;;;3.10;2.80;;;16.30;1.00;;;;;;2612534;39;20506;-62
2024/02/13 03:58:18;;;;;;;3.30;2.97;;;16.30;1.00;;;;;;2612567;54;20175;-62
2024/02/13 04:00:44;;;;;;;3.00;2.70;;;16.20;1.00;;;;;;2612262;54;20335;-62
2024/02/13 04:03:11;;;;;;;3.10;2.80;;;16.20;1.00;;;;;;2612260;54;20170;-62
2024/02/13 04:05:38;;;;;;;3.70;3.10;;;16.20;1.00;;;;;;2613428;39;20547;-63
2024/02/13 04:08:06;;;;;;;3.00;2.80;;;16.20;1.00;;;;;;2613348;54;20406;-61
2024/02/13 04:10:32;;;;;;;3.53;2.53;;;16.20;1.00;;;;;;2613558;39;20797;-62
2024/02/13 04:12:58;;;;;;;3.00;2.80;;;16.20;1.00;;;;;;2612798;47;20404;-63
2024/02/13 04:15:23;;;;;;;3.03;2.70;;;16.20;1.00;;;;;;2613434;54;20442;-63
2024/02/13 04:17:50;;;;;;;2.87;2.50;;;16.20;1.00;;;;;;2613449;54;20155;-63
2024/02/13 04:20:17;;;;;;;3.37;2.77;;;16.20;1.00;;;;;;2613072;54;20158;-62
2024/02/13 04:22:45;;;;;;;2.93;2.70;;;16.20;1.00;;;;;;2613122;54;20414;-62
2024/02/13 04:25:11;;;;;;;3.40;3.10;;;16.20;1.00;;;;;;2612942;54;20414;-62
2024/02/13 04:27:38;;;;;;;3.57;2.93;;;16.20;1.00;;;;;;2613229;39;20869;-63
2024/02/13 04:30:08;;;;;;;3.20;2.90;;;16.20;1.00;;;;;;2613512;54;20423;-63
2024/02/13 04:32:36;;;;;;;2.87;2.67;;;16.20;1.00;;;;;;2613447;54;20447;-62
2024/02/13 04:35:03;;;;;;;3.43;3.13;;;16.20;1.00;;;;;;2613112;54;20396;-64
2024/02/13 04:37:28;;;;;;;4.27;3.23;;;16.20;1.00;;;;;;2613504;54;20418;-64
2024/02/13 04:39:54;;;;;;;3.33;3.03;;;16.20;1.00;;;;;;2612471;54;20490;-63
2024/02/13 04:42:36;;;;;;;3.17;2.97;;;16.20;1.00;;;;;;2614144;54;20169;-64
2024/02/13 04:45:03;;;;;;;2.90;2.70;;;16.20;1.00;;;;;;2613677;54;20684;-63
2024/02/13 04:47:29;;;;;;;4.27;2.90;;;16.20;1.00;;;;;;2613263;39;20981;-63
2024/02/13 04:50:00;;;;;;;3.80;3.10;;;16.20;1.00;;;;;;2612891;54;20456;-63
2024/02/13 04:52:26;;;;;;;3.63;3.33;;;16.20;1.00;;;;;;2612852;54;20430;-63
2024/02/13 04:54:53;;;;;;;3.27;3.07;;;16.20;1.00;;;;;;2612865;54;20419;-61
2024/02/13 04:57:19;;;;;;;3.33;3.03;;;16.20;1.00;;;;;;2613035;54;20485;-61
2024/02/13 04:59:48;;;;;;;3.30;3.00;;;16.20;1.00;;;;;;2613240;47;20433;-61
2024/02/13 05:02:19;;;;;;;2.97;2.77;;;16.20;1.00;;;;;;2612961;39;20817;-61
2024/02/13 05:07:31;;;;;;;2.33;2.13;;;16.20;1.00;;;;;;2612906;54;20391;-72
2024/02/13 05:09:58;;;;;;;2.70;2.50;;;16.20;1.00;;;;;;2613249;47;20427;-72
2024/02/13 05:12:24;;;;;;;3.03;2.83;;;16.20;1.00;;;;;;2613796;39;20796;-72
2024/02/13 05:14:52;;;;;;;2.87;2.60;;;16.20;1.00;;;;;;2613467;54;20428;-72
2024/02/13 05:17:26;;;;;;;2.67;2.40;;;16.20;1.00;;;;;;2613524;54;20422;-72
2024/02/13 05:19:52;;;;;;;3.10;2.90;;;16.20;1.00;;;;;;2613209;54;20450;-72
2024/02/13 05:22:19;;;;;;;3.10;2.60;;;16.20;1.00;;;;;;2613514;54;20950;-72
2024/02/13 05:24:45;;;;;;;2.77;2.57;;;16.20;1.00;;;;;;2614142;31;20866;-72
2024/02/13 05:27:13;;;;;;;2.27;2.07;;;16.20;1.00;;;;;;2613158;54;20404;-72
2024/02/13 05:29:39;;;;;;;2.73;2.53;;;16.20;1.00;;;;;;2612632;54;21102;-72
2024/02/13 05:32:06;;;;;;;3.10;2.43;;;16.20;1.00;;;;;;2613374;47;20435;-72
2024/02/13 05:34:33;;;;;;;2.80;2.47;;;16.20;1.00;;;;;;2613102;54;20432;-72
2024/02/13 05:36:58;;;;;;;3.33;2.60;;;16.20;1.00;;;;;;2613495;54;20427;-72
2024/02/13 05:39:25;;;;;;;2.67;2.47;;;16.20;1.00;;;;;;2613003;54;21052;-72
2024/02/13 05:41:51;;;;;;;2.43;2.23;;;16.20;1.00;;;;;;2612843;54;20175;-72
2024/02/13 05:44:17;;;;;;;2.90;2.50;;;16.10;1.00;;;;;;2613515;54;20391;-59
2024/02/13 05:46:42;;;;;;;3.80;2.40;;;16.20;1.00;;;;;;2613661;54;20435;-58
2024/02/13 05:49:08;;;;;;;2.60;2.40;;;16.20;1.00;;;;;;2612105;54;20184;-59
2024/02/13 05:51:35;;;;;;;2.70;2.50;;;16.20;1.00;;;;;;2612770;54;20731;-60
2024/02/13 05:54:04;;;;;;;2.80;2.10;;;16.10;1.00;;;;;;2612857;54;20170;-59
2024/02/13 05:56:33;;;;;;;2.60;2.37;;;16.10;1.00;;;;;;2612919;54;20408;-60
2024/02/13 05:59:01;;;;;;;3.50;2.40;;;16.20;1.00;;;;;;2612271;54;20417;-59
2024/02/13 06:01:31;;;;;;;2.23;2.13;;;16.10;1.00;;;;;;2611618;46;20448;-58
2024/02/13 06:04:01;;;;;;;2.40;2.20;;;16.20;1.00;;;;;;2612812;54;20950;-61
2024/02/13 06:06:27;;;;;;;2.40;2.20;;;16.10;1.00;;;;;;2613168;47;20431;-62
2024/02/13 06:08:53;;;;;;;2.17;1.77;;;16.10;1.00;;;;;;2612809;54;20461;-61
2024/02/13 06:11:20;;;;;;;2.40;2.20;;;16.10;1.00;;;;;;2613178;54;20411;-61
2024/02/13 06:13:46;;;;;;;2.50;2.13;;;16.20;1.00;;;;;;2612926;39;20837;-60
2024/02/13 06:16:16;;;;;;;2.53;2.33;;;16.20;1.00;;;;;;2613228;54;20407;-60
2024/02/13 06:18:42;;;;;;;2.50;2.30;;;16.10;1.00;;;;;;2612397;54;20194;-59
2024/02/13 06:21:08;;;;;;;2.60;2.10;;;16.20;1.00;;;;;;2612765;47;20412;-60
2024/02/13 06:23:33;;;;;;;2.50;1.80;;;16.20;1.00;;;;;;2612261;54;20164;-60
2024/02/13 06:25:59;;;;;;;3.23;2.93;;;16.20;1.00;;;;;;2613137;47;20176;-60
2024/02/13 06:28:25;;;;;;;4.53;2.50;;;16.20;1.00;;;;;;2613122;54;20167;-60
2024/02/13 06:30:51;;;;;;;2.30;2.10;;;16.20;1.00;;;;;;2613435;54;20467;-59
2024/02/13 06:33:17;;;;;;;3.10;2.40;;;16.20;1.00;;;;;;2612163;54;20709;-59
2024/02/13 06:35:43;;;;;;;2.67;2.30;;;16.20;1.00;;;;;;2613045;54;20430;-60
2024/02/13 06:38:08;;;;;;;3.10;2.47;;;16.20;1.00;;;;;;2613410;39;20551;-60
2024/02/13 06:40:34;;;;;;;2.43;1.93;;;16.10;1.00;;;;;;2613501;54;20466;-59
2024/02/13 06:43:01;;;;;;;2.10;2.00;;;16.10;1.00;;;;;;2613274;54;20204;-60
2024/02/13 06:45:27;;;;;;;2.47;2.27;;;16.20;1.00;;;;;;2613730;54;20673;-60
2024/02/13 06:47:53;;;;;;;3.07;2.30;;;16.10;1.00;;;;;;2611939;47;20476;-60
2024/02/13 06:50:19;;;;;;;3.60;2.30;;;16.20;1.00;;;;;;2611997;54;20162;-59
2024/02/13 06:52:51;;;;;;;2.90;1.90;;;16.10;1.00;;;;;;2612751;47;20424;-62
2024/02/13 06:55:19;;;;;;;2.67;2.03;;;16.20;1.00;;;;;;2613067;47;20277;-63
2024/02/13 06:57:44;;;;;;;1.70;1.60;;;16.10;1.00;;;;;;2613292;39;20968;-63
2024/02/13 07:00:11;;;;;;;2.63;2.00;;;16.10;1.00;;;;;;2611718;54;20381;-63
2024/02/13 07:02:37;;;;;;;2.37;1.73;;;16.20;1.00;;;;;;2613026;54;20153;-63
2024/02/13 07:05:06;;;;;;;1.93;1.73;;;16.20;1.00;;;;;;2612971;54;20944;-62
2024/02/13 07:07:32;;;;;;;2.87;2.57;;;16.10;1.00;;;;;;2612812;54;20167;-63
2024/02/13 07:09:57;;;;;;;3.37;2.33;;;16.10;1.00;;;;;;2612478;54;20427;-63
2024/02/13 07:12:23;;;;;;;2.57;1.83;;;16.20;1.00;;;;;;2612944;54;20411;-64
2024/02/13 07:14:50;;;;;;;3.20;2.00;;;16.20;1.00;;;;;;2612766;54;20159;-63
2024/02/13 07:17:16;;;;;;;2.60;2.37;;;16.10;1.00;;;;;;2612842;54;20151;-63
2024/02/13 07:19:42;;;;;;;2.23;1.90;;;16.10;1.00;;;;;;2612894;54;20543;-64
2024/02/13 07:22:08;;;;;;;2.27;2.07;;;16.20;1.00;;;;;;2612790;54;20251;-64
2024/02/13 07:24:36;;;;;;;2.57;2.37;;;16.10;1.00;;;;;;2613965;54;20170;-73
2024/02/13 07:27:04;;;;;;;2.00;1.90;;;16.10;1.00;;;;;;2613752;54;20423;-73
2024/02/13 07:29:31;;;;;;;4.37;1.93;;;16.10;1.00;;;;;;2612775;54;20439;-72
2024/02/13 07:31:57;;;;;;;2.30;1.87;;;16.10;1.00;;;;;;2613287;47;20428;-72
2024/02/13 07:34:23;;;;;;;2.17;2.00;;;16.10;1.00;;;;;;2613191;54;20404;-73
2024/02/13 07:36:48;;;;;;;3.60;2.50;;;16.10;1.00;;;;;;2611824;54;20404;-72
2024/02/13 07:39:14;;;;;;;1.90;1.80;;;16.10;1.00;;;;;;2613392;54;20146;-72
2024/02/13 07:41:41;;;;;;;2.10;1.90;;;16.10;1.00;;;;;;2613124;54;20166;-73
2024/02/13 07:44:07;;;;;;;2.30;1.90;;;16.10;1.00;;;;;;2613287;54;20957;-73
2024/02/13 07:46:33;;;;;;;2.23;1.60;;;16.10;1.00;;;;;;2613259;47;20430;-73
2024/02/13 07:48:58;;;;;;;2.20;2.00;;;16.20;1.00;;;;;;2613617;54;20229;-73
2024/02/13 07:51:24;;;;;;;3.60;2.27;;;16.10;1.00;;;;;;2613545;54;20159;-74
2024/02/13 07:53:50;;;;;;;1.87;1.70;;;16.10;1.00;;;;;;2612880;47;20258;-72
2024/02/13 07:56:18;;;;;;;2.23;2.00;;;16.20;1.00;;;;;;2614030;54;20166;-72
2024/02/13 07:58:44;;;;;;;3.23;1.70;;;16.20;1.00;;;;;;2612740;54;20793;-72
2024/02/13 08:01:10;;;;;;;2.20;2.00;;;16.20;1.00;;;;;;2613495;54;20402;-71
2024/02/13 08:03:37;;;;;;;2.33;2.10;;;16.20;1.00;;;;;;2614503;54;20404;-62
2024/02/13 08:06:03;;;;;;;2.33;1.90;;;16.20;1.00;;;;;;2613775;54;20239;-62
2024/02/13 08:08:30;;;;;;;1.97;1.63;;;16.20;1.00;;;;;;2613422;54;20425;-61
2024/02/13 08:10:57;;;;;;;2.40;1.87;;;16.20;1.00;;;;;;2612903;54;20427;-62
2024/02/13 08:13:22;;;;;;;3.50;2.00;;;16.20;1.00;;;;;;2612975;49;20501;-62
2024/02/13 08:15:48;;;;;;;2.13;1.93;;;16.20;1.00;;;;;;2613251;54;20426;-62
2024/02/13 08:18:14;;;;;;;3.23;3.03;;;16.20;1.00;;;;;;2613633;54;20221;-62
2024/02/13 08:20:40;;;;;;;2.43;1.77;;;16.20;1.00;;;;;;2612976;54;20264;-62
2024/02/13 08:23:06;;;;;;;2.03;1.73;;;16.20;1.00;;;;;;2613374;54;20562;-71
2024/02/13 08:25:32;;;;;;;1.73;1.50;;;16.20;1.00;;;;;;2613744;54;20462;-72
2024/02/13 08:27:58;;;;;;;1.97;1.77;;;16.20;1.00;;;;;;2614185;54;20167;-71
2024/02/13 08:30:24;;;;;;;2.73;2.00;;;16.20;1.00;;;;;;2613656;54;20433;-71
2024/02/13 08:32:50;;;;;;;1.77;1.67;;;16.30;1.00;;;;;;2614159;39;20888;-63
2024/02/13 08:35:18;;;;;;;2.37;2.10;;;16.30;1.00;;;;;;2613569;47;20173;-66
2024/02/13 08:37:44;;;;;;;2.47;1.97;;;16.30;1.00;;;;;;2613770;54;20392;-67
2024/02/13 08:40:14;;;;;;;2.30;1.83;;;16.30;1.00;;;;;;2614030;54;20396;-66
2024/02/13 08:42:40;;;;;;;1.77;1.50;;;16.30;1.00;;;;;;2612982;54;20803;-67
2024/02/13 08:45:06;;;;;;;1.80;1.70;;;16.30;1.00;;;;;;2613648;54;20410;-66
2024/02/13 08:47:32;;;;;;;2.00;1.63;;;16.40;1.00;;;;;;2614081;39;20669;-66
2024/02/13 08:49:58;;;;;;;3.87;2.43;;;16.40;1.00;;;;;;2613387;39;20756;-66
2024/02/13 08:52:24;;;;;;;2.23;1.80;;;16.40;1.00;;;;;;2613118;54;20496;-66
2024/02/13 08:54:49;;;;;;;1.90;1.80;;;16.40;1.00;;;;;;2614003;54;20178;-67
2024/02/13 08:57:15;;;;;;;2.50;1.70;;;16.40;1.00;;;;;;2612360;54;21039;-67
2024/02/13 08:59:41;;;;;;;1.93;1.40;;;16.40;1.00;;;;;;2613274;54;20172;-66
2024/02/13 09:02:10;;;;;;;4.10;2.00;;;16.50;1.00;;;;;;2613421;54;20174;-66
2024/02/13 09:04:36;;;;;;;2.50;2.30;;;16.50;1.00;;;;;;2611760;54;20490;-66
2024/02/13 09:07:03;;;;;;;2.37;1.70;;;16.50;1.00;;;;;;2612708;54;20999;-66
2024/02/13 09:09:32;;;;;;;2.10;1.90;;;16.40;1.00;;;;;;2613496;54;20422;-66
2024/02/13 09:11:58;;;;;;;1.70;1.60;;;16.50;1.00;;;;;;2613768;54;20421;-66
2024/02/13 09:14:24;;;;;;;2.20;1.80;;;16.50;1.00;;;;;;2613538;54;21049;-62
2024/02/13 09:16:49;;;;;;;2.23;2.03;;;16.50;1.00;;;;;;2613729;54;20411;-62
2024/02/13 09:19:15;;;;;;;2.10;2.00;;;16.50;1.00;;;;;;2612392;54;20189;-62
2024/02/13 09:21:43;;;;;;;2.40;1.40;;;16.60;1.00;;;;;;2613218;54;20167;-62
2024/02/13 09:24:09;;;;;;;3.03;1.40;;;16.50;1.00;;;;;;2613172;39;20593;-62
2024/02/13 09:26:35;;;;;;;2.90;1.67;;;16.60;1.00;;;;;;2612818;54;20416;-62
2024/02/13 09:29:01;;;;;;;2.63;1.80;;;16.60;1.00;;;;;;2613559;54;20457;-62
2024/02/13 09:31:27;;;;;;;2.77;2.23;;;16.60;1.00;;;;;;2612714;47;20442;-62
2024/02/13 09:33:54;;;;;;;5.20;1.70;;;16.70;1.00;;;;;;2613885;54;20150;-62
2024/02/13 09:36:21;;;;;;;3.93;2.30;;;16.90;1.00;;;;;;2613163;54;20425;-63
2024/02/13 09:38:47;;;;;;;2.60;1.80;;;19.50;1.00;;;;;;2613652;54;20393;-61
2024/02/13 09:41:14;;;;;;;2.23;1.83;;;21.60;1.00;;;;;;2613311;54;20928;-62
2024/02/13 09:43:40;;;;;;;1.90;1.47;;;22.20;1.00;;;;;;2612801;54;20988;-67
2024/02/13 09:46:06;;;;;;;2.10;1.60;;;22.60;1.00;;;;;;2613485;54;20537;-67
2024/02/13 09:48:37;;;;;;;2.77;2.10;;;24.00;1.00;;;;;;2613382;54;20581;-67
2024/02/13 09:51:10;;;;;;;7.20;2.40;;;24.20;1.00;;;;;;2613273;47;20531;-67
2024/02/13 09:53:40;;;;;;;2.30;1.87;;;23.80;1.00;;;;;;2613832;39;20817;-66
2024/02/13 09:56:06;;;;;;;3.03;1.87;;;22.80;1.00;;;;;;2611818;54;20420;-67
2024/02/13 09:58:32;;;;;;;1.97;1.77;;;23.90;1.00;;;;;;2611996;54;20419;-67
2024/02/13 10:00:58;;;;;;;1.70;1.60;;;24.90;1.00;;;;;;2612960;54;20453;-67
2024/02/13 10:03:24;;;;;;;2.10;2.00;;;25.00;1.00;;;;;;2612865;54;20425;-67
2024/02/13 10:05:50;;;;;;;2.37;1.83;;;25.70;1.00;;;;;;2613204;54;20440;-66
2024/02/13 10:08:17;;;;;;;1.80;1.60;;;26.80;1.00;;;;;;2613427;54;20734;-66
2024/02/13 10:10:44;;;;;;;1.70;1.53;;;24.50;1.00;;;;;;2612775;54;20167;-66
2024/02/13 10:13:12;;;;;;;1.40;1.30;;;22.70;1.00;;;;;;2613748;54;20391;-68
2024/02/13 10:15:43;;;;;;;1.70;1.60;;;20.80;1.00;;;;;;2613608;39;20886;-68
2024/02/13 10:18:13;;;;;;;1.83;1.70;;;19.80;1.00;;;;;;2612531;54;20458;-67
2024/02/13 10:20:43;;;;;;;3.30;1.90;;;19.30;1.00;;;;;;2613322;54;20412;-68
2024/02/13 10:23:22;;;;;;;1.63;1.53;;;18.80;1.00;;;;;;2613562;39;20811;-70
2024/02/13 10:25:48;;;;;;;2.07;1.80;;;18.60;1.00;;;;;;2613609;54;20425;-70
2024/02/13 10:28:17;;;;;;;2.53;1.80;;;18.40;1.00;;;;;;2613182;54;20424;-71
2024/02/13 10:30:49;;;;;;;2.43;1.87;;;18.20;1.00;;;;;;2613467;39;20537;-70
2024/02/13 10:33:15;;;;;;;2.00;1.77;;;18.10;1.00;;;;;;2613857;54;20432;-72
2024/02/13 10:35:41;;;;;;;2.17;1.57;;;17.90;1.00;;;;;;2613016;54;20480;-71
2024/02/13 10:38:09;;;;;;;2.73;1.70;;;17.90;1.00;;;;;;2613479;47;20417;-71
2024/02/13 10:40:39;;;;;;;1.50;1.30;;;17.90;1.00;;;;;;2614001;54;20840;-70
2024/02/13 10:43:08;;;;;;;1.70;1.60;;;17.90;1.00;;;;;;2613406;54;20423;-60
2024/02/13 10:45:37;;;;;;;1.60;1.47;;;17.80;1.00;;;;;;2612411;54;20986;-60
2024/02/13 10:48:30;;;;;;;2.50;1.63;;;17.80;1.00;;;;;;2611659;54;20445;-60
2024/02/13 10:50:58;;;;;;;1.97;1.50;;;17.80;1.00;;;;;;2613236;54;20423;-59
2024/02/13 10:53:25;;;;;;;1.70;1.60;;;17.80;1.00;;;;;;2612883;54;20400;-67
2024/02/13 10:55:54;;;;;;;1.87;1.73;;;17.80;1.00;;;;;;2611875;54;20429;-63
2024/02/13 10:58:22;;;;;;;1.80;1.70;;;17.80;1.00;;;;;;2612980;54;20990;-62
2024/02/13 11:00:51;;;;;;;1.73;1.63;;;17.70;1.00;;;;;;2612683;54;20432;-62
2024/02/13 11:03:18;;;;;;;2.20;1.63;;;17.60;1.00;;;;;;2611524;54;20503;-63
2024/02/13 11:05:45;;;;;;;1.43;1.30;;;17.60;1.00;;;;;;2613136;54;20508;-63
2024/02/13 11:08:13;;;;;;;2.23;1.73;;;17.50;1.00;;;;;;2612242;54;20426;-62
2024/02/13 11:10:41;;;;;;;3.23;1.83;;;17.50;1.00;;;;;;2611841;54;20400;-63
2024/02/13 11:13:09;;;;;;;2.10;1.30;;;17.40;1.00;;;;;;2613124;39;20610;-63
2024/02/13 11:15:39;;;;;;;1.87;1.60;;;17.40;1.00;;;;;;2613434;39;20879;-62
2024/02/13 11:18:12;;;;;;;1.97;1.60;;;17.30;1.00;;;;;;2612584;47;20435;-62
2024/02/13 11:20:39;;;;;;;2.23;1.50;;;17.30;1.00;;;;;;2612768;54;20446;-63
2024/02/13 11:23:15;;;;;;;2.13;1.93;;;17.30;1.00;;;;;;2612443;39;20709;-61
2024/02/13 11:25:44;;;;;;;1.63;1.47;;;17.30;1.00;;;;;;2612066;54;20431;-62
2024/02/13 11:28:11;;;;;;;1.80;1.70;;;17.20;1.00;;;;;;2613248;54;20410;-62
2024/02/13 11:30:38;;;;;;;2.50;2.00;;;17.20;1.00;;;;;;2612639;54;20436;-62
2024/02/13 11:33:08;;;;;;;1.53;1.40;;;17.20;1.00;;;;;;2613110;54;20402;-63
2024/02/13 11:35:44;;;;;;;2.00;1.57;;;17.10;1.00;;;;;;2612720;54;20955;-63
2024/02/13 11:38:19;;;;;;;1.50;1.40;;;17.10;1.00;;;;;;2612424;54;20415;-62
2024/02/13 11:40:48;;;;;;;1.90;1.70;;;17.10;1.00;;;;;;2612726;54;20396;-62
2024/02/13 11:43:21;;;;;;;1.60;1.40;;;17.20;1.00;;;;;;2613442;54;20441;-62
2024/02/13 11:45:47;;;;;;;1.57;1.40;;;17.20;1.00;;;;;;2613373;47;20423;-62
2024/02/13 11:48:31;;;;;;;1.97;1.57;;;17.20;1.00;;;;;;2612363;47;20580;-62
2024/02/13 11:50:57;;;;;;;2.23;1.60;;;17.20;1.00;;;;;;2612117;54;20422;-62
2024/02/13 11:53:23;;;;;;;3.10;1.87;;;17.20;1.00;;;;;;2612631;54;20441;-62
2024/02/13 11:55:49;;;;;;;2.00;1.40;;;17.20;1.00;;;;;;2613021;51;20155;-62
2024/02/13 11:58:20;;;;;;;1.80;1.60;;;17.20;1.00;;;;;;2612727;39;20816;-63
2024/02/13 12:01:03;;;;;;;1.40;1.30;;;17.20;1.00;;;;;;2611768;54;20443;-62
2024/02/13 12:03:38;;;;;;;2.40;1.57;;;17.20;1.00;;;;;;2612006;54;20411;-63
2024/02/13 12:06:09;;;;;;;2.37;1.90;;;17.20;1.00;;;;;;2612831;54;20424;-63
2024/02/13 12:08:36;;;;;;;4.30;1.80;;;17.20;1.00;;;;;;2612180;39;20727;-63
2024/02/13 12:11:03;;;;;;;1.63;1.30;;;17.20;1.00;;;;;;2612500;47;20405;-63
2024/02/13 12:13:31;;;;;;;2.37;1.50;;;17.20;1.00;;;;;;2612130;54;20993;-61
2024/02/13 12:15:58;;;;;;;1.93;1.70;;;17.30;1.00;;;;;;2612393;54;20417;-62
2024/02/13 12:18:27;;;;;;;1.90;1.70;;;17.30;1.00;;;;;;2611876;54;20401;-62
2024/02/13 12:20:54;;;;;;;2.60;1.67;;;17.20;1.00;;;;;;2612821;54;20404;-61
2024/02/13 12:23:20;;;;;;;2.20;1.43;;;17.20;1.00;;;;;;2612442;54;20396;-62
2024/02/13 12:25:46;;;;;;;1.93;1.70;;;17.20;1.00;;;;;;2613285;54;20446;-62
2024/02/13 12:28:17;;;;;;;1.53;1.33;;;17.20;1.00;;;;;;2613378;39;20830;-61
2024/02/13 12:30:47;;;;;;;2.53;1.40;;;17.10;1.00;;;;;;2613989;51;20407;-62
2024/02/13 12:33:20;;;;;;;1.70;1.50;;;17.10;1.00;;;;;;2613594;54;20481;-62
2024/02/13 12:36:18;;;;;;;1.47;1.37;;;17.10;1.00;;;;;;2613333;39;20873;-63
2024/02/13 12:38:45;;;;;;;2.10;1.40;;;17.00;1.00;;;;;;2613149;54;20401;-63
2024/02/13 12:41:11;;;;;;;4.83;1.60;;;17.00;1.00;;;;;;2614197;31;20874;-62
2024/02/13 12:43:38;;;;;;;1.57;1.47;;;17.00;1.00;;;;;;2614236;39;20890;-60
2024/02/13 12:46:05;;;;;;;1.60;1.50;;;17.00;1.00;;;;;;2613767;54;20998;-60
2024/02/13 12:48:32;;;;;;;3.13;2.40;;;17.00;1.00;;;;;;2612089;54;21081;-59
2024/02/13 12:51:08;;;;;;;2.87;1.70;;;16.90;1.00;;;;;;2613659;54;20436;-59
2024/02/13 12:53:35;;;;;;;3.17;1.47;;;17.00;1.00;;;;;;2613606;54;20416;-59
2024/02/13 12:56:03;;;;;;;2.47;1.30;;;17.00;1.00;;;;;;2613812;54;20396;-59
2024/02/13 12:58:29;;;;;;;2.50;1.53;;;17.00;1.00;;;;;;2613117;54;20400;-59
2024/02/13 13:00:58;;;;;;;2.23;1.53;;;17.00;1.00;;;;;;2612484;54;20432;-60